Terminal Aerodrome Forecast
Issued by NWS

Home | Current Version | Previous Version | Text Only | Print | Product List | Glossary On
Versions: 1 2 3 4 5 6 7 8 9 10 11 12 13 14 15 16 17 18 19 20 21
000
FTUS43 KMPX 271239 AAA
TAFRNH
TAF AMD
KRNH 271239Z 2713/2812 17007KT P6SM -SHRA VCTS SCT030CB OVC060
      TEMPO 2713/2717 4SM -SHRA BKN030
     FM272200 10006KT P6SM SCT025 OVC050
     FM280700 VRB03KT 4SM BR SCT007 OVC015
     FM281100 03002KT 3SM -SHRA BR BKN007 OVC015=

USA.gov is the U.S. government's official web portal to all federal, state and local government web resources and services.